Weather at Alpena County Regional Airport

Public forecast

Using degrees Fahrenheit for public forecast. Weather courtesy of forecast.io.

Current aviation weather report (METAR) for Alpena County Regional Airport

2024/05/28 23:54 (retrieved 31 minutes ago)

KAPN 282354Z AUTO 34011G19KT 10SM CLR 19/07 A2993 RMK AO2 SLP137 T01890072 10228 20189 53018

Closest aviation forecast (TAF) to Alpena County Regional Airport

Closest forecast is Gore Bay Manitoulin Airport, 64.0 nm (118.5 km) NE.

2024/05/28 20:00 (retrieved 4 hours ago)

TAF CYZE 281940Z 2820/2822 32012G22KT P6SM FEW020 BKN080 OVC180 TEMPO 2820/2822 P6SM -SHRA BKN030 PROB40 2820/2822 5SM TSRA BR BKN020 OVC080CB RMK FCST BASED ON AUTO OBS NXT FCST BY 291000Z